sensor_id;sensor_type;location;lat;lon;timestamp;pressure;altitude;pressure_sealevel;temperature;humidity
77799;BME280;66989;50.426;15.352;2023-04-07T00:00:47;98379.91;;;2.10;68.62
77799;BME280;66989;50.426;15.352;2023-04-07T00:03:14;98378.13;;;2.12;68.55
77799;BME280;66989;50.426;15.352;2023-04-07T00:05:40;98372.94;;;2.12;69.25
77799;BME280;66989;50.426;15.352;2023-04-07T00:08:05;98383.31;;;2.12;69.56
77799;BME280;66989;50.426;15.352;2023-04-07T00:10:34;98377.28;;;2.11;69.50
77799;BME280;66989;50.426;15.352;2023-04-07T00:12:59;98372.09;;;2.11;70.30
77799;BME280;66989;50.426;15.352;2023-04-07T00:15:24;98368.56;;;2.12;70.13
77799;BME280;66989;50.426;15.352;2023-04-07T00:17:50;98373.78;;;2.12;70.39
77799;BME280;66989;50.426;15.352;2023-04-07T00:20:16;98371.94;;;2.14;70.39
77799;BME280;66989;50.426;15.352;2023-04-07T00:22:41;98367.53;;;2.16;71.02
77799;BME280;66989;50.426;15.352;2023-04-07T00:25:07;98375.34;;;2.16;70.75
77799;BME280;66989;50.426;15.352;2023-04-07T00:27:32;98373.59;;;2.17;70.64
77799;BME280;66989;50.426;15.352;2023-04-07T00:29:58;98371.84;;;2.17;70.17
77799;BME280;66989;50.426;15.352;2023-04-07T00:32:23;98371.84;;;2.17;70.61
77799;BME280;66989;50.426;15.352;2023-04-07T00:34:48;98374.44;;;2.17;70.93
77799;BME280;66989;50.426;15.352;2023-04-07T00:37:14;98369.16;;;2.19;70.46
77799;BME280;66989;50.426;15.352;2023-04-07T00:39:39;98361.28;;;2.20;70.14
77799;BME280;66989;50.426;15.352;2023-04-07T00:42:05;98361.19;;;2.23;70.24
77799;BME280;66989;50.426;15.352;2023-04-07T00:44:33;98359.34;;;2.25;70.37
77799;BME280;66989;50.426;15.352;2023-04-07T00:46:59;98348.06;;;2.27;69.64
77799;BME280;66989;50.426;15.352;2023-04-07T00:49:25;98348.91;;;2.27;69.34
77799;BME280;66989;50.426;15.352;2023-04-07T00:51:54;98347.13;;;2.28;69.46
77799;BME280;66989;50.426;15.352;2023-04-07T00:54:23;98347.00;;;2.31;69.71
77799;BME280;66989;50.426;15.352;2023-04-07T00:56:48;98347.78;;;2.33;69.20
77799;BME280;66989;50.426;15.352;2023-04-07T00:59:14;98341.75;;;2.32;69.06
77799;BME280;66989;50.426;15.352;2023-04-07T01:04:30;98332.84;;;2.38;67.70
77799;BME280;66989;50.426;15.352;2023-04-07T01:07:03;98325.97;;;2.37;67.79
77799;BME280;66989;50.426;15.352;2023-04-07T01:09:36;98326.81;;;2.37;67.73
77799;BME280;66989;50.426;15.352;2023-04-07T01:12:14;98317.22;;;2.38;67.87
77799;BME280;66989;50.426;15.352;2023-04-07T01:14:46;98311.88;;;2.41;68.19
77799;BME280;66989;50.426;15.352;2023-04-07T01:17:18;98315.31;;;2.41;67.71
77799;BME280;66989;50.426;15.352;2023-04-07T01:20:02;98307.53;;;2.41;68.02
77799;BME280;66989;50.426;15.352;2023-04-07T01:22:56;98311.88;;;2.41;67.98
77799;BME280;66989;50.426;15.352;2023-04-07T01:25:25;98310.19;;;2.40;68.34
77799;BME280;66989;50.426;15.352;2023-04-07T01:30:58;98312.09;;;2.36;68.07
77799;BME280;66989;50.426;15.352;2023-04-07T01:33:28;98310.34;;;2.37;68.16
77799;BME280;66989;50.426;15.352;2023-04-07T01:35:57;98316.50;;;2.34;67.79
77799;BME280;66989;50.426;15.352;2023-04-07T01:38:24;98309.63;;;2.33;68.76
77799;BME280;66989;50.426;15.352;2023-04-07T01:40:51;98302.78;;;2.31;68.97
77799;BME280;66989;50.426;15.352;2023-04-07T01:43:17;98298.47;;;2.30;69.80
77799;BME280;66989;50.426;15.352;2023-04-07T01:45:43;98302.91;;;2.28;70.36
77799;BME280;66989;50.426;15.352;2023-04-07T01:48:09;98303.69;;;2.30;71.00
77799;BME280;66989;50.426;15.352;2023-04-07T01:50:36;98295.03;;;2.29;71.71
77799;BME280;66989;50.426;15.352;2023-04-07T01:53:03;98298.47;;;2.30;72.38
77799;BME280;66989;50.426;15.352;2023-04-07T01:55:30;98298.75;;;2.23;71.36
77799;BME280;66989;50.426;15.352;2023-04-07T01:57:56;98293.72;;;2.19;71.04
77799;BME280;66989;50.426;15.352;2023-04-07T02:00:21;98300.81;;;2.15;72.22
77799;BME280;66989;50.426;15.352;2023-04-07T02:02:48;98298.41;;;2.11;71.43
77799;BME280;66989;50.426;15.352;2023-04-07T02:05:18;98302.09;;;2.05;71.58
77799;BME280;66989;50.426;15.352;2023-04-07T02:07:58;98301.47;;;2.00;71.74
77799;BME280;66989;50.426;15.352;2023-04-07T02:10:26;98297.28;;;1.96;71.66
77799;BME280;66989;50.426;15.352;2023-04-07T02:12:52;98303.56;;;1.90;72.07
77799;BME280;66989;50.426;15.352;2023-04-07T02:15:19;98295.03;;;1.87;72.71
77799;BME280;66989;50.426;15.352;2023-04-07T02:17:49;98306.47;;;1.83;72.74
77799;BME280;66989;50.426;15.352;2023-04-07T02:20:16;98293.63;;;1.80;71.95
77799;BME280;66989;50.426;15.352;2023-04-07T02:22:42;98289.38;;;1.77;72.85
77799;BME280;66989;50.426;15.352;2023-04-07T02:27:50;98286.09;;;1.72;72.62
77799;BME280;66989;50.426;15.352;2023-04-07T02:30:15;98281.00;;;1.69;72.65
77799;BME280;66989;50.426;15.352;2023-04-07T02:32:41;98281.09;;;1.67;72.83
77799;BME280;66989;50.426;15.352;2023-04-07T02:35:06;98280.31;;;1.65;73.27
77799;BME280;66989;50.426;15.352;2023-04-07T02:37:32;98282.09;;;1.63;73.14
77799;BME280;66989;50.426;15.352;2023-04-07T02:39:57;98279.50;;;1.63;72.74
77799;BME280;66989;50.426;15.352;2023-04-07T02:42:23;98280.41;;;1.62;73.72
77799;BME280;66989;50.426;15.352;2023-04-07T02:44:49;98280.50;;;1.61;74.44
77799;BME280;66989;50.426;15.352;2023-04-07T02:47:14;98280.50;;;1.61;74.81
77799;BME280;66989;50.426;15.352;2023-04-07T02:49:41;98283.09;;;1.61;76.08
77799;BME280;66989;50.426;15.352;2023-04-07T02:52:06;98284.09;;;1.57;76.21
77799;BME280;66989;50.426;15.352;2023-04-07T02:54:32;98277.34;;;1.53;76.24
77799;BME280;66989;50.426;15.352;2023-04-07T02:56:58;98283.50;;;1.50;75.93
77799;BME280;66989;50.426;15.352;2023-04-07T02:59:24;98278.38;;;1.49;75.98
77799;BME280;66989;50.426;15.352;2023-04-07T03:01:50;98275.78;;;1.49;75.86
77799;BME280;66989;50.426;15.352;2023-04-07T03:04:18;98271.44;;;1.49;75.06
77799;BME280;66989;50.426;15.352;2023-04-07T03:06:44;98272.28;;;1.50;75.09
77799;BME280;66989;50.426;15.352;2023-04-07T03:09:13;98273.97;;;1.51;74.79
77799;BME280;66989;50.426;15.352;2023-04-07T03:11:39;98274.72;;;1.53;74.78
77799;BME280;66989;50.426;15.352;2023-04-07T03:14:05;98267.84;;;1.52;74.18
77799;BME280;66989;50.426;15.352;2023-04-07T03:16:31;98267.84;;;1.52;74.46
77799;BME280;66989;50.426;15.352;2023-04-07T03:18:56;98266.09;;;1.52;74.74
77799;BME280;66989;50.426;15.352;2023-04-07T03:21:21;98265.19;;;1.53;74.42
77799;BME280;66989;50.426;15.352;2023-04-07T03:23:47;98258.25;;;1.54;74.95
77799;BME280;66989;50.426;15.352;2023-04-07T03:26:13;98261.72;;;1.54;75.05
77799;BME280;66989;50.426;15.352;2023-04-07T03:28:38;98256.50;;;1.54;74.36
77799;BME280;66989;50.426;15.352;2023-04-07T03:31:05;98259.94;;;1.55;74.60
77799;BME280;66989;50.426;15.352;2023-04-07T03:33:30;98261.72;;;1.54;74.38
77799;BME280;66989;50.426;15.352;2023-04-07T03:35:55;98258.31;;;1.52;74.26
77799;BME280;66989;50.426;15.352;2023-04-07T03:38:21;98260.06;;;1.52;74.43
77799;BME280;66989;50.426;15.352;2023-04-07T03:40:46;98267.91;;;1.50;76.35
77799;BME280;66989;50.426;15.352;2023-04-07T03:43:12;98266.41;;;1.44;76.70
77799;BME280;66989;50.426;15.352;2023-04-07T03:45:41;98264.91;;;1.39;77.51
77799;BME280;66989;50.426;15.352;2023-04-07T03:48:06;98265.84;;;1.36;78.08
77799;BME280;66989;50.426;15.352;2023-04-07T03:50:36;98266.03;;;1.32;78.48
77799;BME280;66989;50.426;15.352;2023-04-07T03:53:01;98256.72;;;1.26;78.06
77799;BME280;66989;50.426;15.352;2023-04-07T03:55:27;98256.72;;;1.26;78.49
77799;BME280;66989;50.426;15.352;2023-04-07T03:57:53;98257.69;;;1.24;78.15
77799;BME280;66989;50.426;15.352;2023-04-07T04:00:18;98261.22;;;1.23;78.04
77799;BME280;66989;50.426;15.352;2023-04-07T04:02:45;98262.75;;;1.27;77.54
77799;BME280;66989;50.426;15.352;2023-04-07T04:05:10;98264.44;;;1.28;78.00
77799;BME280;66989;50.426;15.352;2023-04-07T04:07:37;98265.34;;;1.27;78.59
77799;BME280;66989;50.426;15.352;2023-04-07T04:10:02;98257.63;;;1.25;78.73
77799;BME280;66989;50.426;15.352;2023-04-07T04:12:28;98265.50;;;1.24;79.07
77799;BME280;66989;50.426;15.352;2023-04-07T04:14:53;98264.50;;;1.26;79.11
77799;BME280;66989;50.426;15.352;2023-04-07T04:17:19;98266.94;;;1.31;79.52
77799;BME280;66989;50.426;15.352;2023-04-07T04:19:44;98267.78;;;1.31;79.47
77799;BME280;66989;50.426;15.352;2023-04-07T04:22:10;98269.28;;;1.37;79.96
77799;BME280;66989;50.426;15.352;2023-04-07T04:24:36;98265.69;;;1.41;79.31
77799;BME280;66989;50.426;15.352;2023-04-07T04:27:01;98269.91;;;1.43;79.45
77799;BME280;66989;50.426;15.352;2023-04-07T04:29:26;98268.16;;;1.44;79.25
77799;BME280;66989;50.426;15.352;2023-04-07T04:31:52;98267.91;;;1.50;79.71
77799;BME280;66989;50.426;15.352;2023-04-07T04:34:17;98272.75;;;1.59;79.44
77799;BME280;66989;50.426;15.352;2023-04-07T04:36:42;98268.22;;;1.64;79.05
77799;BME280;66989;50.426;15.352;2023-04-07T04:39:08;98263.56;;;1.72;78.73
77799;BME280;66989;50.426;15.352;2023-04-07T04:41:34;98261.69;;;1.76;78.37
77799;BME280;66989;50.426;15.352;2023-04-07T04:43:59;98259.69;;;1.83;77.90
77799;BME280;66989;50.426;15.352;2023-04-07T04:46:24;98262.75;;;1.92;77.48
77799;BME280;66989;50.426;15.352;2023-04-07T04:48:50;98261.59;;;1.99;77.08
77799;BME280;66989;50.426;15.352;2023-04-07T04:51:17;98255.94;;;2.10;76.93
77799;BME280;66989;50.426;15.352;2023-04-07T04:53:43;98258.13;;;2.21;76.25
77799;BME280;66989;50.426;15.352;2023-04-07T04:56:08;98261.81;;;2.36;76.14
77799;BME280;66989;50.426;15.352;2023-04-07T04:58:34;98259.47;;;2.50;nan
77799;BME280;66989;50.426;15.352;2023-04-07T05:01:00;98245.00;;;2.63;75.07
77799;BME280;66989;50.426;15.352;2023-04-07T05:03:27;98253.94;;;2.76;74.77
77799;BME280;66989;50.426;15.352;2023-04-07T05:05:56;98254.59;;;2.82;74.44
77799;BME280;66989;50.426;15.352;2023-04-07T05:08:22;98248.25;;;2.87;74.62
77799;BME280;66989;50.426;15.352;2023-04-07T05:10:47;98248.97;;;2.91;75.30
77799;BME280;66989;50.426;15.352;2023-04-07T05:13:14;98251.50;;;2.92;75.45
77799;BME280;66989;50.426;15.352;2023-04-07T05:15:40;98256.59;;;2.95;75.70
77799;BME280;66989;50.426;15.352;2023-04-07T05:18:06;98247.84;;;2.96;75.84
77799;BME280;66989;50.426;15.352;2023-04-07T05:20:31;98248.50;;;3.01;75.47
77799;BME280;66989;50.426;15.352;2023-04-07T05:22:57;98248.41;;;3.03;75.21
77799;BME280;66989;50.426;15.352;2023-04-07T05:25:23;98248.28;;;3.06;74.82
77799;BME280;66989;50.426;15.352;2023-04-07T05:27:49;98248.94;;;3.11;74.84
77799;BME280;66989;50.426;15.352;2023-04-07T05:30:16;98244.22;;;3.19;74.30
77799;BME280;66989;50.426;15.352;2023-04-07T05:32:41;98242.47;;;3.20;73.25
77799;BME280;66989;50.426;15.352;2023-04-07T05:35:07;98235.31;;;3.23;73.65
77799;BME280;66989;50.426;15.352;2023-04-07T05:37:34;98245.63;;;3.26;72.94
77799;BME280;66989;50.426;15.352;2023-04-07T05:40:00;98236.78;;;3.29;72.64
77799;BME280;66989;50.426;15.352;2023-04-07T05:42:25;98238.44;;;3.32;72.21
77799;BME280;66989;50.426;15.352;2023-04-07T05:44:50;98247.00;;;3.34;72.26
77799;BME280;66989;50.426;15.352;2023-04-07T05:47:16;98242.50;;;3.37;72.06
77799;BME280;66989;50.426;15.352;2023-04-07T05:49:41;98238.97;;;3.38;71.25
77799;BME280;66989;50.426;15.352;2023-04-07T05:52:12;98239.81;;;3.39;71.37
77799;BME280;66989;50.426;15.352;2023-04-07T05:54:37;98249.56;;;3.35;71.37
77799;BME280;66989;50.426;15.352;2023-04-07T05:57:05;98243.34;;;3.38;71.28
77799;BME280;66989;50.426;15.352;2023-04-07T05:59:31;98251.03;;;3.41;71.60
77799;BME280;66989;50.426;15.352;2023-04-07T06:02:01;98249.34;;;3.40;71.29
77799;BME280;66989;50.426;15.352;2023-04-07T06:04:28;98250.03;;;3.43;71.43
77799;BME280;66989;50.426;15.352;2023-04-07T06:06:54;98245.66;;;3.44;70.61
77799;BME280;66989;50.426;15.352;2023-04-07T06:09:22;98249.81;;;3.48;71.21
77799;BME280;66989;50.426;15.352;2023-04-07T06:11:49;98251.38;;;3.52;70.80
77799;BME280;66989;50.426;15.352;2023-04-07T06:14:16;98245.84;;;3.58;71.33
77799;BME280;66989;50.426;15.352;2023-04-07T06:16:41;98257.53;;;3.68;70.74
77799;BME280;66989;50.426;15.352;2023-04-07T06:19:07;98251.88;;;3.77;69.83
77799;BME280;66989;50.426;15.352;2023-04-07T06:21:32;98246.91;;;3.90;69.80
77799;BME280;66989;50.426;15.352;2023-04-07T06:23:58;98240.09;;;4.05;69.82
77799;BME280;66989;50.426;15.352;2023-04-07T06:26:24;98246.22;;;4.21;69.53
77799;BME280;66989;50.426;15.352;2023-04-07T06:28:49;98238.78;;;4.31;69.05
77799;BME280;66989;50.426;15.352;2023-04-07T06:31:15;98237.75;;;4.51;68.68
77799;BME280;66989;50.426;15.352;2023-04-07T06:33:41;98238.66;;;4.67;68.09
77799;BME280;66989;50.426;15.352;2023-04-07T06:36:06;98234.53;;;4.79;67.69
77799;BME280;66989;50.426;15.352;2023-04-07T06:38:32;98240.91;;;4.91;67.40
77799;BME280;66989;50.426;15.352;2023-04-07T06:40:57;98243.88;;;5.00;67.50
77799;BME280;66989;50.426;15.352;2023-04-07T06:43:22;98234.69;;;5.09;67.19
77799;BME280;66989;50.426;15.352;2023-04-07T06:45:48;98234.69;;;5.09;67.43
77799;BME280;66989;50.426;15.352;2023-04-07T06:48:13;98243.13;;;5.14;67.59
77799;BME280;66989;50.426;15.352;2023-04-07T06:50:46;98241.63;;;5.26;67.36
77799;BME280;66989;50.426;15.352;2023-04-07T06:53:13;98244.16;;;5.43;66.27
77799;BME280;66989;50.426;15.352;2023-04-07T06:55:38;98251.41;;;5.54;66.42
77799;BME280;66989;50.426;15.352;2023-04-07T06:58:04;98247.28;;;5.50;66.02
77799;BME280;66989;50.426;15.352;2023-04-07T07:00:29;98249.22;;;5.62;65.77
77799;BME280;66989;50.426;15.352;2023-04-07T07:02:55;98243.97;;;5.78;64.71
77799;BME280;66989;50.426;15.352;2023-04-07T07:05:23;98243.38;;;5.88;64.29
77799;BME280;66989;50.426;15.352;2023-04-07T07:07:51;98249.19;;;5.94;63.60
77799;BME280;66989;50.426;15.352;2023-04-07T07:10:19;98251.28;;;5.87;62.21
77799;BME280;66989;50.426;15.352;2023-04-07T07:12:52;98262.19;;;5.79;61.98
77799;BME280;66989;50.426;15.352;2023-04-07T07:15:18;98260.50;;;5.78;62.16
77799;BME280;66989;50.426;15.352;2023-04-07T07:17:49;98250.56;;;5.69;62.01
77799;BME280;66989;50.426;15.352;2023-04-07T07:20:15;98250.94;;;5.77;61.73
77799;BME280;66989;50.426;15.352;2023-04-07T07:22:40;98245.38;;;5.99;60.73
77799;BME280;66989;50.426;15.352;2023-04-07T07:25:07;98243.09;;;6.23;58.39
77799;BME280;66989;50.426;15.352;2023-04-07T07:27:33;98243.03;;;6.39;58.48
77799;BME280;66989;50.426;15.352;2023-04-07T07:30:01;98238.34;;;6.44;54.60
77799;BME280;66989;50.426;15.352;2023-04-07T07:32:30;98239.91;;;6.62;54.21
77799;BME280;66989;50.426;15.352;2023-04-07T07:34:56;98249.06;;;6.84;53.50
77799;BME280;66989;50.426;15.352;2023-04-07T07:37:21;98260.41;;;6.99;52.71
77799;BME280;66989;50.426;15.352;2023-04-07T07:39:46;98259.84;;;7.08;52.27
77799;BME280;66989;50.426;15.352;2023-04-07T07:42:13;98264.34;;;7.20;51.55
77799;BME280;66989;50.426;15.352;2023-04-07T07:44:39;98263.78;;;7.29;51.53
77799;BME280;66989;50.426;15.352;2023-04-07T07:47:05;98268.56;;;7.22;51.42
77799;BME280;66989;50.426;15.352;2023-04-07T07:49:30;98265.66;;;6.99;51.33
77799;BME280;66989;50.426;15.352;2023-04-07T07:51:56;98265.19;;;6.92;51.09
77799;BME280;66989;50.426;15.352;2023-04-07T07:54:21;98263.97;;;6.97;51.28
77799;BME280;66989;50.426;15.352;2023-04-07T07:56:47;98254.50;;;6.95;51.92
77799;BME280;66989;50.426;15.352;2023-04-07T07:59:13;98254.50;;;7.09;52.39
77799;BME280;66989;50.426;15.352;2023-04-07T08:01:38;98257.13;;;7.09;53.34
77799;BME280;66989;50.426;15.352;2023-04-07T08:04:04;98267.03;;;6.90;54.45
77799;BME280;66989;50.426;15.352;2023-04-07T08:06:29;98262.66;;;6.76;54.93
77799;BME280;66989;50.426;15.352;2023-04-07T08:08:56;98265.63;;;6.70;55.10
77799;BME280;66989;50.426;15.352;2023-04-07T08:11:22;98273.13;;;6.62;55.91
77799;BME280;66989;50.426;15.352;2023-04-07T08:13:48;98275.69;;;6.48;56.33
77799;BME280;66989;50.426;15.352;2023-04-07T08:16:19;98266.31;;;6.29;55.93
77799;BME280;66989;50.426;15.352;2023-04-07T08:18:46;98277.84;;;6.11;56.79
77799;BME280;66989;50.426;15.352;2023-04-07T08:21:14;98276.31;;;6.07;56.64
77799;BME280;66989;50.426;15.352;2023-04-07T08:23:40;98273.91;;;6.18;56.82
77799;BME280;66989;50.426;15.352;2023-04-07T08:26:08;98270.56;;;6.16;57.13
77799;BME280;66989;50.426;15.352;2023-04-07T08:28:33;98279.66;;;5.95;57.89
77799;BME280;66989;50.426;15.352;2023-04-07T08:30:59;98283.81;;;5.83;58.63
77799;BME280;66989;50.426;15.352;2023-04-07T08:33:53;98279.69;;;5.63;59.91
77799;BME280;66989;50.426;15.352;2023-04-07T08:36:26;98278.16;;;5.59;59.21
77799;BME280;66989;50.426;15.352;2023-04-07T08:38:59;98278.66;;;5.65;59.27
77799;BME280;66989;50.426;15.352;2023-04-07T08:41:36;98284.91;;;5.63;58.66
77799;BME280;66989;50.426;15.352;2023-04-07T08:44:09;98286.59;;;5.64;58.99
77799;BME280;66989;50.426;15.352;2023-04-07T08:46:37;98283.13;;;5.63;58.81
77799;BME280;66989;50.426;15.352;2023-04-07T08:49:12;98278.31;;;5.56;60.02
77799;BME280;66989;50.426;15.352;2023-04-07T08:51:50;98283.47;;;5.57;59.45
77799;BME280;66989;50.426;15.352;2023-04-07T08:54:18;98279.25;;;5.55;59.45
77799;BME280;66989;50.426;15.352;2023-04-07T08:56:46;98286.44;;;5.67;59.19
77799;BME280;66989;50.426;15.352;2023-04-07T08:59:22;98290.72;;;5.68;59.85
77799;BME280;66989;50.426;15.352;2023-04-07T09:01:51;98283.88;;;5.81;59.54
77799;BME280;66989;50.426;15.352;2023-04-07T09:04:29;98278.25;;;5.73;59.47
77799;BME280;66989;50.426;15.352;2023-04-07T09:06:58;98280.53;;;5.63;59.68
77799;BME280;66989;50.426;15.352;2023-04-07T09:09:28;98275.53;;;5.59;60.11
77799;BME280;66989;50.426;15.352;2023-04-07T09:11:53;98274.19;;;5.52;60.58
77799;BME280;66989;50.426;15.352;2023-04-07T09:14:20;98276.53;;;5.40;61.53
77799;BME280;66989;50.426;15.352;2023-04-07T09:16:53;98277.22;;;5.44;61.52
77799;BME280;66989;50.426;15.352;2023-04-07T09:19:19;98274.00;;;5.55;61.25
77799;BME280;66989;50.426;15.352;2023-04-07T09:21:51;98273.91;;;5.56;61.95
77799;BME280;66989;50.426;15.352;2023-04-07T09:24:21;98268.63;;;5.58;62.12
77799;BME280;66989;50.426;15.352;2023-04-07T09:26:47;98273.41;;;5.65;61.94
77799;BME280;66989;50.426;15.352;2023-04-07T09:29:18;98267.59;;;5.60;62.08
77799;BME280;66989;50.426;15.352;2023-04-07T09:31:48;98271.00;;;5.62;62.22
77799;BME280;66989;50.426;15.352;2023-04-07T09:34:27;98270.06;;;5.48;62.47
77799;BME280;66989;50.426;15.352;2023-04-07T09:37:02;98262.03;;;5.51;62.58
77799;BME280;66989;50.426;15.352;2023-04-07T09:39:29;98261.09;;;5.36;63.36
77799;BME280;66989;50.426;15.352;2023-04-07T09:41:54;98266.59;;;5.31;64.60
77799;BME280;66989;50.426;15.352;2023-04-07T09:44:21;98261.38;;;5.47;64.41
77799;BME280;66989;50.426;15.352;2023-04-07T09:49:15;98261.13;;;5.52;63.82
77799;BME280;66989;50.426;15.352;2023-04-07T09:54:41;98260.28;;;5.67;63.14
77799;BME280;66989;50.426;15.352;2023-04-07T09:57:08;98256.72;;;5.68;63.91
77799;BME280;66989;50.426;15.352;2023-04-07T09:59:36;98259.38;;;5.82;64.20
77799;BME280;66989;50.426;15.352;2023-04-07T10:02:02;98250.81;;;6.10;63.37
77799;BME280;66989;50.426;15.352;2023-04-07T10:04:30;98249.31;;;6.06;62.79
77799;BME280;66989;50.426;15.352;2023-04-07T10:06:57;98247.47;;;6.08;63.05
77799;BME280;66989;50.426;15.352;2023-04-07T10:09:23;98257.03;;;5.94;63.29
77799;BME280;66989;50.426;15.352;2023-04-07T10:11:51;98257.41;;;6.02;63.54
77799;BME280;66989;50.426;15.352;2023-04-07T10:14:20;98255.75;;;6.01;63.49
77799;BME280;66989;50.426;15.352;2023-04-07T10:16:47;98252.03;;;6.05;63.85
77799;BME280;66989;50.426;15.352;2023-04-07T10:19:13;98242.88;;;6.12;63.54
77799;BME280;66989;50.426;15.352;2023-04-07T10:21:40;98249.75;;;6.29;63.36
77799;BME280;66989;50.426;15.352;2023-04-07T10:26:57;98247.94;;;6.15;64.29
77799;BME280;66989;50.426;15.352;2023-04-07T10:29:24;98250.88;;;5.95;64.22
77799;BME280;66989;50.426;15.352;2023-04-07T10:31:51;98247.75;;;6.18;64.32
77799;BME280;66989;50.426;15.352;2023-04-07T10:34:17;98246.63;;;6.22;64.33
77799;BME280;66989;50.426;15.352;2023-04-07T10:37:12;98245.69;;;6.09;64.85
77799;BME280;66989;50.426;15.352;2023-04-07T10:39:39;98249.50;;;5.87;65.43
77799;BME280;66989;50.426;15.352;2023-04-07T10:42:05;98252.56;;;5.80;66.11
77799;BME280;66989;50.426;15.352;2023-04-07T10:44:46;98258.88;;;5.91;66.96
77799;BME280;66989;50.426;15.352;2023-04-07T10:47:12;98258.19;;;6.04;66.44
77799;BME280;66989;50.426;15.352;2023-04-07T10:49:39;98247.75;;;6.18;65.50
77799;BME280;66989;50.426;15.352;2023-04-07T10:54:39;98245.69;;;6.53;66.04
77799;BME280;66989;50.426;15.352;2023-04-07T10:57:09;98243.53;;;6.60;65.91
77799;BME280;66989;50.426;15.352;2023-04-07T10:59:40;98243.72;;;6.57;65.75
77799;BME280;66989;50.426;15.352;2023-04-07T11:04:42;98239.56;;;6.24;66.77
77799;BME280;66989;50.426;15.352;2023-04-07T11:07:08;98238.63;;;6.25;66.77
77799;BME280;66989;50.426;15.352;2023-04-07T11:09:34;98239.94;;;6.32;67.00
77799;BME280;66989;50.426;15.352;2023-04-07T11:12:00;98239.09;;;6.32;66.38
77799;BME280;66989;50.426;15.352;2023-04-07T11:14:27;98239.88;;;6.48;66.09
77799;BME280;66989;50.426;15.352;2023-04-07T11:16:55;98240.50;;;6.37;67.76
77799;BME280;66989;50.426;15.352;2023-04-07T11:19:21;98237.19;;;6.64;67.98
77799;BME280;66989;50.426;15.352;2023-04-07T11:21:47;98242.34;;;6.94;66.92
77799;BME280;66989;50.426;15.352;2023-04-07T11:24:34;98238.38;;;7.30;65.60
77799;BME280;66989;50.426;15.352;2023-04-07T11:27:03;98237.03;;;7.51;64.57
77799;BME280;66989;50.426;15.352;2023-04-07T11:29:32;98245.66;;;7.80;63.27
77799;BME280;66989;50.426;15.352;2023-04-07T11:31:58;98243.22;;;7.91;63.68
77799;BME280;66989;50.426;15.352;2023-04-07T11:34:34;98244.84;;;8.07;61.88
77799;BME280;66989;50.426;15.352;2023-04-07T11:37:22;98237.69;;;8.09;62.21
77799;BME280;66989;50.426;15.352;2023-04-07T11:39:55;98234.81;;;8.26;60.89
77799;BME280;66989;50.426;15.352;2023-04-07T11:42:37;98228.31;;;8.32;60.27
77799;BME280;66989;50.426;15.352;2023-04-07T11:45:04;98235.66;;;8.26;60.75
77799;BME280;66989;50.426;15.352;2023-04-07T11:47:37;98229.91;;;8.47;60.70
77799;BME280;66989;50.426;15.352;2023-04-07T11:50:02;98227.56;;;8.55;60.98
77799;BME280;66989;50.426;15.352;2023-04-07T11:52:28;98222.66;;;8.89;59.80
77799;BME280;66989;50.426;15.352;2023-04-07T11:54:53;98226.22;;;8.88;59.14
77799;BME280;66989;50.426;15.352;2023-04-07T11:57:27;98230.59;;;9.13;58.58
77799;BME280;66989;50.426;15.352;2023-04-07T12:00:19;98223.34;;;9.16;57.70
77799;BME280;66989;50.426;15.352;2023-04-07T12:02:45;98226.13;;;9.39;56.47
77799;BME280;66989;50.426;15.352;2023-04-07T12:05:11;98218.78;;;9.31;55.66
77799;BME280;66989;50.426;15.352;2023-04-07T12:07:38;98222.44;;;8.79;56.64
77799;BME280;66989;50.426;15.352;2023-04-07T12:10:22;98218.13;;;8.65;57.30
77799;BME280;66989;50.426;15.352;2023-04-07T12:12:49;98221.59;;;8.53;58.39
77799;BME280;66989;50.426;15.352;2023-04-07T12:15:16;98219.28;;;8.74;57.16
77799;BME280;66989;50.426;15.352;2023-04-07T12:17:46;98218.19;;;9.02;57.07
77799;BME280;66989;50.426;15.352;2023-04-07T12:20:13;98222.84;;;8.98;57.47
77799;BME280;66989;50.426;15.352;2023-04-07T12:22:40;98222.63;;;9.01;57.69
77799;BME280;66989;50.426;15.352;2023-04-07T12:25:07;98218.41;;;8.86;57.39
77799;BME280;66989;50.426;15.352;2023-04-07T12:27:32;98213.50;;;8.69;58.43
77799;BME280;66989;50.426;15.352;2023-04-07T12:29:58;98213.59;;;8.93;57.57
77799;BME280;66989;50.426;15.352;2023-04-07T12:32:23;98221.88;;;9.12;57.20
77799;BME280;66989;50.426;15.352;2023-04-07T12:34:49;98212.81;;;9.16;57.03
77799;BME280;66989;50.426;15.352;2023-04-07T12:37:15;98216.84;;;8.71;58.30
77799;BME280;66989;50.426;15.352;2023-04-07T12:39:41;98210.84;;;8.82;59.18
77799;BME280;66989;50.426;15.352;2023-04-07T12:42:08;98211.81;;;8.68;58.86
77799;BME280;66989;50.426;15.352;2023-04-07T12:44:37;98215.59;;;8.64;60.02
77799;BME280;66989;50.426;15.352;2023-04-07T12:47:05;98211.50;;;8.85;60.49
77799;BME280;66989;50.426;15.352;2023-04-07T12:49:30;98208.88;;;8.60;60.09
77799;BME280;66989;50.426;15.352;2023-04-07T12:51:56;98212.13;;;8.76;59.57
77799;BME280;66989;50.426;15.352;2023-04-07T12:54:22;98214.97;;;8.73;60.54
77799;BME280;66989;50.426;15.352;2023-04-07T12:56:49;98209.59;;;8.87;58.94
77799;BME280;66989;50.426;15.352;2023-04-07T12:59:14;98212.09;;;9.01;59.09
77799;BME280;66989;50.426;15.352;2023-04-07T13:01:40;98206.63;;;9.04;58.43
77799;BME280;66989;50.426;15.352;2023-04-07T13:04:05;98208.75;;;8.99;59.83
77799;BME280;66989;50.426;15.352;2023-04-07T13:06:32;98204.22;;;9.01;59.62
77799;BME280;66989;50.426;15.352;2023-04-07T13:08:57;98207.59;;;9.03;59.05
77799;BME280;66989;50.426;15.352;2023-04-07T13:11:23;98202.13;;;8.94;59.37
77799;BME280;66989;50.426;15.352;2023-04-07T13:13:49;98204.03;;;8.79;60.02
77799;BME280;66989;50.426;15.352;2023-04-07T13:16:14;98205.31;;;8.73;59.24
77799;BME280;66989;50.426;15.352;2023-04-07T13:18:40;98200.88;;;8.74;59.98
77799;BME280;66989;50.426;15.352;2023-04-07T13:21:06;98202.56;;;8.88;60.19
77799;BME280;66989;50.426;15.352;2023-04-07T13:23:32;98198.69;;;8.68;60.28